createdAt,value
2019-02-25T00:00:38.459Z,3.36
2019-02-25T00:01:46.519Z,3.36
2019-02-25T00:02:54.587Z,3.36
2019-02-25T00:04:02.632Z,3.40
2019-02-25T00:05:10.683Z,3.39
2019-02-25T00:06:18.738Z,3.35
2019-02-25T00:07:26.802Z,3.33
2019-02-25T00:08:34.843Z,3.33
2019-02-25T00:09:43.073Z,3.42
2019-02-25T00:10:50.987Z,3.33
2019-02-25T00:11:59.028Z,3.29
2019-02-25T00:13:07.080Z,3.36
2019-02-25T00:14:15.146Z,3.32
2019-02-25T00:15:23.202Z,3.24
2019-02-25T00:16:31.600Z,3.21
2019-02-25T00:17:39.577Z,3.08
2019-02-25T00:18:47.643Z,3.14
2019-02-25T00:19:55.710Z,3.10
2019-02-25T00:21:03.751Z,3.08
2019-02-25T00:22:11.796Z,3.15
2019-02-25T00:23:19.859Z,3.14
2019-02-25T00:24:27.863Z,3.15
2019-02-25T00:25:36.668Z,3.05
2019-02-25T00:26:43.995Z,3.03
2019-02-25T00:27:52.048Z,3.08
2019-02-25T00:29:00.081Z,3.10
2019-02-25T00:30:07.935Z,3.08
2019-02-25T00:31:15.985Z,3.15
2019-02-25T00:32:24.039Z,3.10
2019-02-25T00:33:32.098Z,3.05
2019-02-25T00:34:40.173Z,3.05
2019-02-25T00:35:48.195Z,3.05
2019-02-25T00:36:56.251Z,3.05
2019-02-25T00:38:04.331Z,3.02
2019-02-25T00:39:12.380Z,2.97
2019-02-25T00:40:20.425Z,2.96
2019-02-25T00:41:28.477Z,3.05
2019-02-25T00:42:36.546Z,3.00
2019-02-25T00:43:44.610Z,3.06
2019-02-25T00:44:52.662Z,3.06
2019-02-25T00:46:00.701Z,3.18
2019-02-25T00:47:08.788Z,3.21
2019-02-25T00:48:16.826Z,3.18
2019-02-25T00:49:24.901Z,3.11
2019-02-25T00:50:32.955Z,3.14
2019-02-25T00:51:40.993Z,3.24
2019-02-25T00:52:49.040Z,3.31
2019-02-25T00:53:57.115Z,3.29
2019-02-25T00:55:05.161Z,3.36
2019-02-25T00:56:13.241Z,3.35
2019-02-25T00:57:21.275Z,3.39
2019-02-25T00:58:29.324Z,3.48
2019-02-25T00:59:37.391Z,3.47
2019-02-25T01:00:45.448Z,3.43
2019-02-25T01:01:53.516Z,3.40
2019-02-25T01:03:01.541Z,3.48
2019-02-25T01:04:09.627Z,3.36
2019-02-25T01:05:17.661Z,3.50
2019-02-25T01:06:25.711Z,3.51
2019-02-25T01:07:33.775Z,3.54
2019-02-25T01:08:41.862Z,3.54
2019-02-25T01:09:49.909Z,3.52
2019-02-25T01:10:57.950Z,3.55
2019-02-25T01:12:06.055Z,3.79
2019-02-25T01:13:14.078Z,3.75
2019-02-25T01:14:22.120Z,3.73
2019-02-25T01:15:30.166Z,3.68
2019-02-25T01:16:38.254Z,3.65
2019-02-25T01:17:46.327Z,3.70
2019-02-25T01:18:54.351Z,3.72
2019-02-25T01:20:02.412Z,3.78
2019-02-25T01:21:10.464Z,4.09
2019-02-25T01:22:18.518Z,4.06
2019-02-25T01:23:26.591Z,4.06
2019-02-25T01:24:34.662Z,4.04
2019-02-25T01:25:42.673Z,4.11
2019-02-25T01:26:51.676Z,4.05
2019-02-25T01:27:58.827Z,4.15
2019-02-25T01:29:06.877Z,4.12
2019-02-25T01:30:14.905Z,4.00
2019-02-25T01:31:22.972Z,4.09
2019-02-25T01:32:31.035Z,3.93
2019-02-25T01:33:39.085Z,3.96
2019-02-25T01:34:47.125Z,3.84
2019-02-25T01:35:55.183Z,3.88
2019-02-25T01:37:03.262Z,3.86
2019-02-25T01:38:11.297Z,3.90
2019-02-25T01:39:19.368Z,3.94
2019-02-25T01:40:27.388Z,3.96
2019-02-25T01:41:35.471Z,3.94
2019-02-25T01:42:43.539Z,3.91
2019-02-25T01:43:51.591Z,3.96
2019-02-25T01:44:59.637Z,4.11
2019-02-25T01:46:07.683Z,4.06
2019-02-25T01:47:15.765Z,3.91
2019-02-25T01:48:23.833Z,3.98
2019-02-25T01:49:31.870Z,4.08
2019-02-25T01:50:39.937Z,4.14
2019-02-25T01:51:48.039Z,4.09
2019-02-25T01:52:56.057Z,4.16
2019-02-25T01:54:04.116Z,4.18
2019-02-25T01:55:12.143Z,4.32
2019-02-25T01:56:20.213Z,4.27
2019-02-25T01:57:28.284Z,4.20
2019-02-25T01:58:36.322Z,4.20
2019-02-25T01:59:44.382Z,4.12
2019-02-25T02:00:52.434Z,4.06
2019-02-25T02:02:00.505Z,4.12
2019-02-25T02:03:08.565Z,4.02
2019-02-25T02:04:16.604Z,4.18
2019-02-25T02:05:24.699Z,4.08
2019-02-25T02:06:32.735Z,4.15
2019-02-25T02:07:40.804Z,4.09
2019-02-25T02:08:48.829Z,4.04
2019-02-25T02:09:56.905Z,3.90
2019-02-25T02:11:04.954Z,4.09
2019-02-25T02:12:13.012Z,3.91
2019-02-25T02:13:21.060Z,3.98
2019-02-25T02:14:29.109Z,4.14
2019-02-25T02:15:37.168Z,4.16
2019-02-25T02:16:45.253Z,4.20
2019-02-25T02:17:53.288Z,4.06
2019-02-25T02:19:01.336Z,4.06
2019-02-25T02:20:09.405Z,4.16
2019-02-25T02:21:17.435Z,4.05
2019-02-25T02:22:25.510Z,4.06
2019-02-25T02:23:33.582Z,4.14
2019-02-25T02:24:41.626Z,4.11
2019-02-25T02:25:49.684Z,4.06
2019-02-25T02:26:57.726Z,4.11
2019-02-25T02:28:05.805Z,4.20
2019-02-25T02:29:13.858Z,4.30
2019-02-25T02:30:21.931Z,4.30
2019-02-25T02:31:29.998Z,4.30
2019-02-25T02:32:38.034Z,4.37
2019-02-25T02:33:46.132Z,4.32
2019-02-25T02:34:54.131Z,4.33
2019-02-25T02:36:02.187Z,4.26
2019-02-25T02:37:10.251Z,4.15
2019-02-25T02:38:18.317Z,4.20
2019-02-25T02:39:26.358Z,4.06
2019-02-25T02:40:34.426Z,4.09
2019-02-25T02:41:42.480Z,4.11
2019-02-25T02:42:50.534Z,4.02
2019-02-25T02:43:58.591Z,4.11
2019-02-25T02:45:06.656Z,4.02
2019-02-25T02:46:14.685Z,4.18
2019-02-25T02:47:22.758Z,4.27
2019-02-25T02:48:30.821Z,4.26
2019-02-25T02:49:38.869Z,4.34
2019-02-25T02:50:46.916Z,4.33
2019-02-25T02:51:54.987Z,4.29
2019-02-25T02:53:03.030Z,4.18
2019-02-25T02:54:11.110Z,4.20
2019-02-25T02:55:19.158Z,4.18
2019-02-25T02:56:27.203Z,4.16
2019-02-25T02:57:35.276Z,4.20
2019-02-25T02:58:43.325Z,4.18
2019-02-25T02:59:51.370Z,4.22
2019-02-25T03:00:59.428Z,4.18
2019-02-25T03:02:07.498Z,4.08
2019-02-25T03:03:15.560Z,4.14
2019-02-25T03:04:23.601Z,4.11
2019-02-25T03:05:31.675Z,4.18
2019-02-25T03:06:39.714Z,4.20
2019-02-25T03:07:47.762Z,4.16
2019-02-25T03:08:55.848Z,4.26
2019-02-25T03:10:03.892Z,4.26
2019-02-25T03:11:11.938Z,4.20
2019-02-25T03:12:20.011Z,4.22
2019-02-25T03:13:28.025Z,4.32
2019-02-25T03:14:36.105Z,4.29
2019-02-25T03:15:44.180Z,4.24
2019-02-25T03:16:52.228Z,4.26
2019-02-25T03:18:00.281Z,4.30
2019-02-25T03:19:08.339Z,4.32
2019-02-25T03:20:16.400Z,4.32
2019-02-25T03:21:24.479Z,4.29
2019-02-25T03:22:32.521Z,4.33
2019-02-25T03:23:40.567Z,4.23
2019-02-25T03:24:48.634Z,4.26
2019-02-25T03:25:56.678Z,4.30
2019-02-25T03:27:04.738Z,4.33
2019-02-25T03:28:12.776Z,4.42
2019-02-25T03:29:20.852Z,4.48
2019-02-25T03:30:28.913Z,4.48
2019-02-25T03:31:36.973Z,4.42
2019-02-25T03:32:45.024Z,4.40
2019-02-25T03:33:53.092Z,4.44
2019-02-25T03:35:01.137Z,4.30
2019-02-25T03:36:09.187Z,4.41
2019-02-25T03:37:17.254Z,4.44
2019-02-25T03:38:25.305Z,4.41
2019-02-25T03:39:33.368Z,4.32
2019-02-25T03:40:41.470Z,4.32
2019-02-25T03:41:49.459Z,4.36
2019-02-25T03:42:57.524Z,4.40
2019-02-25T03:44:05.595Z,4.41
2019-02-25T03:45:13.640Z,4.32
2019-02-25T03:46:21.712Z,4.33
2019-02-25T03:47:29.758Z,4.34
2019-02-25T03:48:37.806Z,4.33
2019-02-25T03:49:45.861Z,4.26
2019-02-25T03:50:53.949Z,4.18
2019-02-25T03:52:02.024Z,4.29
2019-02-25T03:53:10.054Z,4.30
2019-02-25T03:54:18.085Z,4.36
2019-02-25T03:55:26.175Z,4.32
2019-02-25T03:56:34.196Z,4.24
2019-02-25T03:57:42.273Z,4.30
2019-02-25T03:58:50.325Z,4.26
2019-02-25T03:59:58.373Z,4.22
2019-02-25T04:01:06.421Z,4.50
2019-02-25T04:02:14.516Z,4.40
2019-02-25T04:03:22.560Z,4.60
2019-02-25T04:04:30.611Z,4.70
2019-02-25T04:05:38.657Z,4.67
2019-02-25T04:06:46.720Z,4.63
2019-02-25T04:07:54.769Z,4.54
2019-02-25T04:09:02.857Z,4.62
2019-02-25T04:10:10.904Z,4.44
2019-02-25T04:11:18.954Z,4.51
2019-02-25T04:12:27.040Z,4.60
2019-02-25T04:13:35.064Z,4.59
2019-02-25T04:14:43.154Z,4.60
2019-02-25T04:15:51.166Z,4.62
2019-02-25T04:16:59.228Z,4.59
2019-02-25T04:18:07.301Z,4.66
2019-02-25T04:19:15.343Z,4.60
2019-02-25T04:20:23.431Z,4.54
2019-02-25T04:21:31.466Z,4.58
2019-02-25T04:22:39.509Z,4.51
2019-02-25T04:23:47.560Z,4.48
2019-02-25T04:24:55.625Z,4.51
2019-02-25T04:26:03.699Z,4.48
2019-02-25T04:27:11.731Z,4.55
2019-02-25T04:28:19.801Z,4.50
2019-02-25T04:29:27.834Z,4.51
2019-02-25T04:30:35.928Z,4.50
2019-02-25T04:31:43.994Z,4.40
2019-02-25T04:32:52.045Z,4.48
2019-02-25T04:34:00.100Z,4.48
2019-02-25T04:35:08.145Z,4.48
2019-02-25T04:36:16.228Z,4.41
2019-02-25T04:37:25.072Z,4.34
2019-02-25T04:38:32.347Z,4.36
2019-02-25T04:39:40.418Z,4.37
2019-02-25T04:40:48.464Z,4.36
2019-02-25T04:41:56.484Z,4.45
2019-02-25T04:43:04.542Z,4.40
2019-02-25T04:44:12.588Z,4.52
2019-02-25T04:45:20.666Z,4.54
2019-02-25T04:46:28.718Z,4.54
2019-02-25T04:47:36.774Z,4.41
2019-02-25T04:48:44.846Z,4.48
2019-02-25T04:49:52.871Z,4.42
2019-02-25T04:51:00.956Z,4.51
2019-02-25T04:52:09.010Z,4.42
2019-02-25T04:53:17.045Z,4.44
2019-02-25T04:54:25.120Z,4.62
2019-02-25T04:55:33.174Z,4.73
2019-02-25T04:56:41.245Z,4.59
2019-02-25T04:57:49.286Z,4.58
2019-02-25T04:58:57.332Z,4.66
2019-02-25T05:00:05.399Z,4.60
2019-02-25T05:01:13.456Z,4.65
2019-02-25T05:02:21.509Z,4.51
2019-02-25T05:03:29.565Z,4.48
2019-02-25T05:04:37.596Z,4.50
2019-02-25T05:05:45.685Z,4.48
2019-02-25T05:06:53.762Z,4.45
2019-02-25T05:08:01.805Z,4.42
2019-02-25T05:09:09.842Z,4.51
2019-02-25T05:10:17.875Z,4.52
2019-02-25T05:11:25.961Z,4.45
2019-02-25T05:12:34.030Z,4.34
2019-02-25T05:13:42.087Z,4.34
2019-02-25T05:14:50.147Z,4.59
2019-02-25T05:15:58.217Z,4.72
2019-02-25T05:17:06.230Z,4.70
2019-02-25T05:18:14.277Z,4.69
2019-02-25T05:19:22.367Z,4.67
2019-02-25T05:20:30.411Z,4.82
2019-02-25T05:21:38.456Z,4.73
2019-02-25T05:22:46.543Z,4.77
2019-02-25T05:23:54.596Z,4.70
2019-02-25T05:25:02.645Z,4.77
2019-02-25T05:26:10.704Z,4.77
2019-02-25T05:27:18.935Z,4.84
2019-02-25T05:28:26.828Z,4.78
2019-02-25T05:29:34.867Z,4.78
2019-02-25T05:30:42.938Z,4.66
2019-02-25T05:31:50.996Z,4.72
2019-02-25T05:32:59.056Z,4.54
2019-02-25T05:34:07.111Z,4.60
2019-02-25T05:35:15.163Z,4.63
2019-02-25T05:36:23.208Z,4.62
2019-02-25T05:37:31.269Z,4.73
2019-02-25T05:38:40.038Z,4.72
2019-02-25T05:39:47.359Z,4.55
2019-02-25T05:40:55.435Z,4.60
2019-02-25T05:42:03.490Z,4.58
2019-02-25T05:43:11.545Z,4.58
2019-02-25T05:44:20.055Z,4.60
2019-02-25T05:45:27.702Z,4.60
2019-02-25T05:46:36.341Z,4.48
2019-02-25T05:47:43.800Z,4.44
2019-02-25T05:48:51.967Z,4.36
2019-02-25T05:49:59.904Z,4.40
2019-02-25T05:51:07.965Z,4.34
2019-02-25T05:52:16.590Z,4.24
2019-02-25T05:53:24.483Z,4.30
2019-02-25T05:54:32.125Z,4.33
2019-02-25T05:55:40.750Z,4.40
2019-02-25T05:56:48.244Z,4.34
2019-02-25T05:57:56.282Z,4.60
2019-02-25T05:59:04.355Z,4.48
2019-02-25T06:00:12.416Z,4.50
2019-02-25T06:01:20.470Z,4.41
2019-02-25T06:02:28.529Z,4.44
2019-02-25T06:03:36.567Z,4.33
2019-02-25T06:04:44.652Z,4.42
2019-02-25T06:05:52.677Z,4.37
2019-02-25T06:07:00.765Z,4.32
2019-02-25T06:08:08.818Z,4.44
2019-02-25T06:09:16.878Z,4.48
2019-02-25T06:10:24.924Z,4.51
2019-02-25T06:11:32.981Z,4.62
2019-02-25T06:12:41.059Z,4.65
2019-02-25T06:13:49.083Z,4.55
2019-02-25T06:14:57.159Z,4.62
2019-02-25T06:16:05.213Z,4.45
2019-02-25T06:17:13.278Z,4.50
2019-02-25T06:18:21.333Z,4.48
2019-02-25T06:19:29.386Z,4.51
2019-02-25T06:20:37.432Z,4.55
2019-02-25T06:21:45.495Z,4.58
2019-02-25T06:22:53.567Z,4.65
2019-02-25T06:24:01.624Z,4.59
2019-02-25T06:25:09.673Z,4.54
2019-02-25T06:26:17.719Z,4.66
2019-02-25T06:27:30.577Z,4.55
2019-02-25T06:28:33.848Z,4.48
2019-02-25T06:29:41.907Z,4.44
2019-02-25T06:30:49.986Z,4.48
2019-02-25T06:31:58.074Z,4.55
2019-02-25T06:33:06.122Z,4.63
2019-02-25T06:34:14.135Z,4.60
2019-02-25T06:35:22.202Z,4.63
2019-02-25T06:36:30.246Z,4.62
2019-02-25T06:37:38.325Z,4.59
2019-02-25T06:38:46.372Z,4.62
2019-02-25T06:39:54.558Z,4.62
2019-02-25T06:41:02.464Z,4.62
2019-02-25T06:42:10.541Z,4.63
2019-02-25T06:43:18.592Z,4.60
2019-02-25T06:44:26.655Z,4.62
2019-02-25T06:45:34.703Z,4.62
2019-02-25T06:46:42.773Z,4.55
2019-02-25T06:47:50.841Z,4.60
2019-02-25T06:48:58.874Z,4.62
2019-02-25T06:50:06.944Z,4.62
2019-02-25T06:51:15.011Z,4.50
2019-02-25T06:52:23.066Z,4.62
2019-02-25T06:53:31.133Z,4.75
2019-02-25T06:54:39.160Z,4.82
2019-02-25T06:55:47.217Z,4.84
2019-02-25T06:56:55.293Z,5.00
2019-02-25T06:58:03.332Z,5.20
2019-02-25T06:59:11.386Z,5.51
2019-02-25T07:00:19.446Z,5.76
2019-02-25T07:01:27.493Z,5.93
2019-02-25T07:02:35.595Z,6.04
2019-02-25T07:03:43.747Z,6.41
2019-02-25T07:04:51.680Z,6.56
2019-02-25T07:05:59.747Z,6.51
2019-02-25T07:07:07.806Z,6.64
2019-02-25T07:08:15.876Z,6.58
2019-02-25T07:09:23.941Z,6.46
2019-02-25T07:10:31.990Z,6.28
2019-02-25T07:11:40.046Z,6.34
2019-02-25T07:12:48.095Z,6.25
2019-02-25T07:13:56.158Z,6.25
2019-02-25T07:15:04.242Z,6.36
2019-02-25T07:16:12.272Z,6.38
2019-02-25T07:17:20.349Z,6.49
2019-02-25T07:18:28.388Z,6.56
2019-02-25T07:19:36.458Z,6.66
2019-02-25T07:20:44.532Z,6.69
2019-02-25T07:21:52.582Z,6.73
2019-02-25T07:23:00.625Z,6.79
2019-02-25T07:24:08.728Z,6.73
2019-02-25T07:25:16.751Z,6.73
2019-02-25T07:26:24.814Z,6.84
2019-02-25T07:27:32.886Z,6.76
2019-02-25T07:28:40.941Z,6.74
2019-02-25T07:29:49.017Z,6.81
2019-02-25T07:30:57.078Z,6.87
2019-02-25T07:32:05.135Z,6.80
2019-02-25T07:33:13.178Z,6.84
2019-02-25T07:34:21.238Z,6.97
2019-02-25T07:35:29.305Z,6.85
2019-02-25T07:36:37.397Z,6.91
2019-02-25T07:37:45.418Z,6.91
2019-02-25T07:38:53.472Z,6.94
2019-02-25T07:40:01.568Z,6.88
2019-02-25T07:41:09.601Z,6.95
2019-02-25T07:42:17.655Z,7.05
2019-02-25T07:43:25.716Z,6.87
2019-02-25T07:44:33.787Z,7.13
2019-02-25T07:45:41.834Z,7.13
2019-02-25T07:46:49.909Z,7.30
2019-02-25T07:47:57.959Z,7.17
2019-02-25T07:49:06.031Z,7.27
2019-02-25T07:50:14.088Z,7.37
2019-02-25T07:51:22.136Z,7.63
2019-02-25T07:52:30.212Z,7.63
2019-02-25T07:53:38.264Z,7.83
2019-02-25T07:54:46.323Z,7.86
2019-02-25T07:56:02.057Z,7.83
2019-02-25T07:57:02.440Z,7.86
2019-02-25T07:58:10.518Z,7.77
2019-02-25T07:59:18.572Z,7.87
2019-02-25T08:00:26.631Z,7.98
2019-02-25T08:01:34.677Z,7.89
2019-02-25T08:02:42.765Z,7.85
2019-02-25T08:03:50.815Z,7.89
2019-02-25T08:04:58.882Z,7.87
2019-02-25T08:06:06.940Z,7.92
2019-02-25T08:07:15.007Z,7.92
2019-02-25T08:08:23.056Z,8.11
2019-02-25T08:09:31.114Z,8.15
2019-02-25T08:10:39.171Z,8.12
2019-02-25T08:11:47.239Z,8.29
2019-02-25T08:12:55.295Z,8.15
2019-02-25T08:14:03.359Z,8.10
2019-02-25T08:15:11.426Z,7.93
2019-02-25T08:16:19.475Z,7.72
2019-02-25T08:17:27.531Z,7.35
2019-02-25T08:18:35.601Z,7.49
2019-02-25T08:19:43.657Z,7.32
2019-02-25T08:20:51.720Z,7.34
2019-02-25T08:21:59.776Z,7.34
2019-02-25T08:23:07.885Z,7.37
2019-02-25T08:24:15.912Z,7.40
2019-02-25T08:25:23.959Z,7.39
2019-02-25T08:26:32.039Z,7.40
2019-02-25T08:27:40.085Z,7.35
2019-02-25T08:28:48.161Z,7.49
2019-02-25T08:29:56.198Z,7.60
2019-02-25T08:31:04.283Z,7.55
2019-02-25T08:32:12.332Z,7.68
2019-02-25T08:33:20.397Z,7.63
2019-02-25T08:34:28.444Z,7.64
2019-02-25T08:35:36.505Z,7.64
2019-02-25T08:36:44.568Z,7.71
2019-02-25T08:37:52.655Z,7.79
2019-02-25T08:39:00.688Z,7.79
2019-02-25T08:40:08.795Z,7.85
2019-02-25T08:41:16.817Z,7.89
2019-02-25T08:42:24.870Z,7.93
2019-02-25T08:43:32.934Z,7.93
2019-02-25T08:44:41.176Z,8.00
2019-02-25T08:45:49.072Z,7.97
2019-02-25T08:46:57.114Z,7.92
2019-02-25T08:48:05.173Z,7.77
2019-02-25T08:49:13.256Z,7.79
2019-02-25T08:50:21.293Z,7.83
2019-02-25T08:51:29.359Z,7.87
2019-02-25T08:52:37.439Z,8.00
2019-02-25T08:53:45.504Z,8.05
2019-02-25T08:54:53.543Z,8.08
2019-02-25T08:56:01.640Z,8.02
2019-02-25T08:57:09.657Z,7.97
2019-02-25T08:58:17.709Z,8.08
2019-02-25T08:59:25.810Z,8.26
2019-02-25T09:00:33.893Z,8.25
2019-02-25T09:01:41.914Z,8.50
2019-02-25T09:02:49.965Z,8.53
2019-02-25T09:03:58.018Z,8.56
2019-02-25T09:05:06.076Z,8.52
2019-02-25T09:06:14.165Z,8.59
2019-02-25T09:07:22.218Z,8.70
2019-02-25T09:08:30.258Z,8.73
2019-02-25T09:09:38.336Z,8.86
2019-02-25T09:10:46.381Z,8.91
2019-02-25T09:11:54.459Z,8.96
2019-02-25T09:13:02.496Z,8.96
2019-02-25T09:14:10.561Z,9.01
2019-02-25T09:15:18.628Z,9.14
2019-02-25T09:16:26.686Z,9.17
2019-02-25T09:17:34.752Z,9.20
2019-02-25T09:18:42.819Z,9.39
2019-02-25T09:19:50.879Z,9.29
2019-02-25T09:20:58.954Z,9.47
2019-02-25T09:22:07.006Z,9.48
2019-02-25T09:23:15.054Z,9.48
2019-02-25T09:24:23.113Z,9.26
2019-02-25T09:25:31.191Z,8.98
2019-02-25T09:26:39.244Z,9.01
2019-02-25T09:27:47.299Z,8.98
2019-02-25T09:28:57.265Z,9.11
2019-02-25T09:30:03.415Z,9.18
2019-02-25T09:31:11.477Z,9.01
2019-02-25T09:32:19.555Z,8.99
2019-02-25T09:33:27.611Z,9.29
2019-02-25T09:34:35.724Z,9.35
2019-02-25T09:35:44.412Z,9.47
2019-02-25T09:36:51.798Z,9.53
2019-02-25T09:37:59.884Z,9.69
2019-02-25T09:39:08.579Z,9.78
2019-02-25T09:40:16.613Z,9.93
2019-02-25T09:41:29.801Z,9.84
2019-02-25T09:42:32.103Z,9.83
2019-02-25T09:43:40.159Z,9.61
2019-02-25T09:44:48.222Z,9.47
2019-02-25T09:45:56.279Z,9.47
2019-02-25T09:47:05.155Z,9.51
2019-02-25T09:48:12.416Z,9.60
2019-02-25T09:49:20.445Z,9.65
2019-02-25T09:50:28.531Z,9.81
2019-02-25T09:51:36.595Z,9.76
2019-02-25T09:52:44.662Z,9.71
2019-02-25T09:53:52.708Z,9.60
2019-02-25T09:55:00.776Z,9.75
2019-02-25T09:56:08.824Z,9.68
2019-02-25T09:57:16.903Z,9.79
2019-02-25T09:58:24.966Z,9.96
2019-02-25T09:59:33.289Z,10.11
2019-02-25T10:00:41.073Z,10.14
2019-02-25T10:01:49.129Z,10.29
2019-02-25T10:02:57.186Z,10.36
2019-02-25T10:04:05.290Z,10.56
2019-02-25T10:05:13.335Z,10.66
2019-02-25T10:06:21.385Z,10.78
2019-02-25T10:07:29.441Z,10.74
2019-02-25T10:08:37.511Z,10.78
2019-02-25T10:09:45.595Z,10.94
2019-02-25T10:10:53.670Z,10.91
2019-02-25T10:12:01.687Z,10.82
2019-02-25T10:13:09.765Z,10.84
2019-02-25T10:14:17.852Z,10.66
2019-02-25T10:15:25.901Z,10.45
2019-02-25T10:16:33.977Z,10.55
2019-02-25T10:17:42.000Z,10.44
2019-02-25T10:18:50.059Z,10.27
2019-02-25T10:19:58.178Z,10.30
2019-02-25T10:21:06.192Z,10.33
2019-02-25T10:22:14.261Z,10.60
2019-02-25T10:23:22.323Z,10.66
2019-02-25T10:24:30.381Z,10.66
2019-02-25T10:25:38.426Z,10.76
2019-02-25T10:26:46.509Z,10.64
2019-02-25T10:27:54.577Z,10.76
2019-02-25T10:29:02.614Z,10.86
2019-02-25T10:30:10.689Z,10.92
2019-02-25T10:31:18.761Z,10.60
2019-02-25T10:32:27.933Z,10.30
2019-02-25T10:33:34.892Z,10.18
2019-02-25T10:34:42.958Z,10.09
2019-02-25T10:35:51.103Z,10.20
2019-02-25T10:36:59.082Z,10.40
2019-02-25T10:38:07.162Z,10.44
2019-02-25T10:39:16.198Z,10.53
2019-02-25T10:40:25.237Z,10.70
2019-02-25T10:41:31.328Z,10.74
2019-02-25T10:42:39.378Z,10.88
2019-02-25T10:43:47.424Z,10.73
2019-02-25T10:44:55.509Z,10.86
2019-02-25T10:46:03.559Z,10.79
2019-02-25T10:47:13.401Z,10.88
2019-02-25T10:48:21.196Z,11.07
2019-02-25T10:49:29.302Z,10.85
2019-02-25T10:50:35.959Z,10.76
2019-02-25T10:51:45.443Z,10.71
2019-02-25T10:52:51.953Z,10.84
2019-02-25T10:54:00.025Z,10.79
2019-02-25T10:55:08.057Z,10.91
2019-02-25T10:56:16.691Z,11.06
2019-02-25T10:57:26.506Z,10.67
2019-02-25T10:58:33.564Z,10.73
2019-02-25T10:59:41.468Z,10.73
2019-02-25T11:00:48.361Z,10.82
2019-02-25T11:01:56.459Z,11.02
2019-02-25T11:03:04.519Z,11.07
2019-02-25T11:04:12.552Z,11.25
2019-02-25T11:05:21.105Z,11.42
2019-02-25T11:06:29.065Z,11.61
2019-02-25T11:07:37.307Z,11.65
2019-02-25T11:08:45.703Z,11.95
2019-02-25T11:09:52.881Z,11.95
2019-02-25T11:11:00.959Z,11.62
2019-02-25T11:12:09.055Z,11.64
2019-02-25T11:13:17.061Z,11.46
2019-02-25T11:14:25.146Z,11.55
2019-02-25T11:15:33.182Z,11.80
2019-02-25T11:16:41.920Z,11.79
2019-02-25T11:17:50.020Z,11.78
2019-02-25T11:18:58.637Z,11.69
2019-02-25T11:20:05.720Z,11.73
2019-02-25T11:21:13.511Z,11.52
2019-02-25T11:22:21.572Z,11.51
2019-02-25T11:23:29.623Z,11.65
2019-02-25T11:24:37.697Z,11.79
2019-02-25T11:25:45.762Z,11.85
2019-02-25T11:26:53.850Z,11.72
2019-02-25T11:28:03.133Z,11.88
2019-02-25T11:29:11.369Z,12.04
2019-02-25T11:30:18.927Z,12.10
2019-02-25T11:31:27.237Z,12.09
2019-02-25T11:32:34.141Z,12.24
2019-02-25T11:33:42.205Z,12.20
2019-02-25T11:34:50.258Z,12.17
2019-02-25T11:35:58.423Z,12.39
2019-02-25T11:37:06.393Z,12.53
2019-02-25T11:38:14.447Z,12.50
2019-02-25T11:39:22.532Z,12.60
2019-02-25T11:40:31.059Z,12.71
2019-02-25T11:41:39.395Z,12.74
2019-02-25T11:42:46.759Z,12.83
2019-02-25T11:43:55.270Z,12.85
2019-02-25T11:45:04.449Z,12.85
2019-02-25T11:46:10.893Z,12.65
2019-02-25T11:47:18.961Z,12.60
2019-02-25T11:48:27.022Z,12.54
2019-02-25T11:49:35.125Z,12.54
2019-02-25T11:50:44.746Z,12.53
2019-02-25T11:51:51.231Z,12.78
2019-02-25T11:52:59.280Z,12.85
2019-02-25T11:54:07.346Z,12.78
2019-02-25T11:55:15.416Z,12.86
2019-02-25T11:56:23.508Z,12.95
2019-02-25T11:57:31.544Z,12.70
2019-02-25T11:58:39.619Z,12.59
2019-02-25T11:59:47.657Z,12.59
2019-02-25T12:00:55.709Z,12.53
2019-02-25T12:02:03.847Z,12.67
2019-02-25T12:03:11.848Z,12.50
2019-02-25T12:04:19.902Z,12.59
2019-02-25T12:05:27.967Z,12.60
2019-02-25T12:06:36.048Z,12.60
2019-02-25T12:07:44.133Z,12.71
2019-02-25T12:08:52.176Z,12.83
2019-02-25T12:10:00.342Z,12.74
2019-02-25T12:11:08.744Z,12.56
2019-02-25T12:12:16.366Z,12.59
2019-02-25T12:13:24.434Z,12.53
2019-02-25T12:14:32.477Z,12.59
2019-02-25T12:15:40.547Z,12.70
2019-02-25T12:16:48.618Z,12.90
2019-02-25T12:17:56.684Z,12.86
2019-02-25T12:19:04.764Z,13.00
2019-02-25T12:20:12.809Z,13.00
2019-02-25T12:21:20.867Z,13.04
2019-02-25T12:22:28.935Z,12.93
2019-02-25T12:23:37.022Z,12.96
2019-02-25T12:24:45.106Z,13.00
2019-02-25T12:25:53.134Z,12.87
2019-02-25T12:27:01.201Z,12.89
2019-02-25T12:28:09.271Z,13.07
2019-02-25T12:29:17.318Z,13.14
2019-02-25T12:30:25.376Z,13.10
2019-02-25T12:31:33.450Z,13.05
2019-02-25T12:32:41.495Z,13.23
2019-02-25T12:33:49.585Z,13.17
2019-02-25T12:34:57.704Z,12.96
2019-02-25T12:36:05.707Z,13.00
2019-02-25T12:37:13.763Z,13.10
2019-02-25T12:38:21.826Z,12.85
2019-02-25T12:39:29.912Z,12.82
2019-02-25T12:40:37.989Z,12.87
2019-02-25T12:41:46.056Z,12.90
2019-02-25T12:42:54.141Z,13.04
2019-02-25T12:44:02.171Z,13.17
2019-02-25T12:45:10.213Z,13.26
2019-02-25T12:46:18.292Z,13.19
2019-02-25T12:47:26.340Z,13.17
2019-02-25T12:48:34.436Z,13.23
2019-02-25T12:49:42.469Z,12.92
2019-02-25T12:50:50.522Z,13.07
2019-02-25T12:51:58.599Z,13.01
2019-02-25T12:53:06.668Z,13.11
2019-02-25T12:54:14.733Z,13.14
2019-02-25T12:55:22.781Z,13.05
2019-02-25T12:56:30.871Z,13.28
2019-02-25T12:57:38.913Z,13.29
2019-02-25T12:58:46.987Z,13.42
2019-02-25T12:59:55.060Z,13.30
2019-02-25T13:01:03.129Z,13.42
2019-02-25T13:02:11.170Z,13.20
2019-02-25T13:03:19.251Z,13.39
2019-02-25T13:04:27.307Z,13.42
2019-02-25T13:05:35.375Z,13.51
2019-02-25T13:06:43.414Z,13.57
2019-02-25T13:07:51.494Z,13.69
2019-02-25T13:08:59.571Z,13.67
2019-02-25T13:10:07.629Z,13.59
2019-02-25T13:11:15.680Z,13.49
2019-02-25T13:12:23.745Z,13.32
2019-02-25T13:13:31.834Z,13.38
2019-02-25T13:14:39.901Z,13.41
2019-02-25T13:15:47.992Z,13.38
2019-02-25T13:16:56.010Z,13.57
2019-02-25T13:18:04.071Z,13.71
2019-02-25T13:19:12.152Z,13.64
2019-02-25T13:20:20.232Z,13.67
2019-02-25T13:21:28.265Z,13.67
2019-02-25T13:22:36.361Z,13.69
2019-02-25T13:23:44.392Z,13.82
2019-02-25T13:24:52.453Z,13.82
2019-02-25T13:26:07.090Z,13.91
2019-02-25T13:27:11.040Z,14.04
2019-02-25T13:28:16.652Z,14.00
2019-02-25T13:29:24.722Z,14.06
2019-02-25T13:30:32.775Z,13.97
2019-02-25T13:31:40.907Z,13.97
2019-02-25T13:32:48.914Z,14.03
2019-02-25T13:33:56.966Z,14.00
2019-02-25T13:35:05.037Z,13.99
2019-02-25T13:36:13.084Z,14.06
2019-02-25T13:37:21.168Z,14.02
2019-02-25T13:38:29.236Z,14.14
2019-02-25T13:39:37.298Z,14.21
2019-02-25T13:40:45.365Z,13.99
2019-02-25T13:41:53.420Z,14.10
2019-02-25T13:43:01.492Z,14.14
2019-02-25T13:44:09.557Z,14.04
2019-02-25T13:45:17.643Z,14.20
2019-02-25T13:46:25.683Z,14.20
2019-02-25T13:47:33.761Z,14.27
2019-02-25T13:48:41.825Z,14.22
2019-02-25T13:49:49.872Z,14.22
2019-02-25T13:50:57.925Z,14.25
2019-02-25T13:52:06.013Z,14.20
2019-02-25T13:53:14.064Z,14.21
2019-02-25T13:54:22.126Z,14.15
2019-02-25T13:55:30.213Z,14.21
2019-02-25T13:56:38.257Z,14.28
2019-02-25T13:57:46.333Z,14.20
2019-02-25T13:58:54.402Z,14.25
2019-02-25T14:00:02.450Z,14.14
2019-02-25T14:01:10.539Z,14.36
2019-02-25T14:02:18.583Z,14.06
2019-02-25T14:03:26.639Z,13.85
2019-02-25T14:04:34.726Z,13.97
2019-02-25T14:05:42.781Z,14.03
2019-02-25T14:06:50.845Z,13.92
2019-02-25T14:07:58.903Z,13.85
2019-02-25T14:09:06.969Z,13.96
2019-02-25T14:10:15.044Z,14.07
2019-02-25T14:11:23.115Z,14.02
2019-02-25T14:12:31.166Z,13.95
2019-02-25T14:13:39.236Z,13.82
2019-02-25T14:14:47.299Z,14.00
2019-02-25T14:15:55.371Z,13.88
2019-02-25T14:17:03.437Z,13.89
2019-02-25T14:18:11.498Z,13.84
2019-02-25T14:19:19.561Z,13.66
2019-02-25T14:20:27.613Z,13.71
2019-02-25T14:21:36.416Z,13.75
2019-02-25T14:22:43.747Z,13.71
2019-02-25T14:23:51.827Z,13.71
2019-02-25T14:24:59.876Z,13.69
2019-02-25T14:26:07.946Z,13.73
2019-02-25T14:27:15.998Z,13.64
2019-02-25T14:28:24.064Z,13.71
2019-02-25T14:29:32.141Z,13.69
2019-02-25T14:30:40.183Z,13.70
2019-02-25T14:31:48.880Z,13.66
2019-02-25T14:32:56.336Z,13.64
2019-02-25T14:34:04.409Z,13.67
2019-02-25T14:35:12.454Z,13.51
2019-02-25T14:36:20.522Z,13.63
2019-02-25T14:37:28.587Z,13.73
2019-02-25T14:38:37.264Z,13.70
2019-02-25T14:39:49.131Z,13.69
2019-02-25T14:40:53.990Z,13.71
2019-02-25T14:42:01.701Z,13.64
2019-02-25T14:43:11.153Z,13.67
2019-02-25T14:44:16.978Z,13.73
2019-02-25T14:45:26.389Z,13.73
2019-02-25T14:46:33.099Z,13.48
2019-02-25T14:47:41.974Z,13.52
2019-02-25T14:48:49.224Z,13.51
2019-02-25T14:49:57.298Z,13.51
2019-02-25T14:51:05.347Z,13.42
2019-02-25T14:52:13.428Z,13.26
2019-02-25T14:53:21.486Z,13.38
2019-02-25T14:54:31.378Z,13.44
2019-02-25T14:55:37.612Z,13.54